createdAt,value
2019-04-30T00:06:00.776Z,99.90
2019-04-30T00:17:15.187Z,99.90
2019-04-30T00:40:08.991Z,99.90
2019-04-30T00:43:50.742Z,99.90
2019-04-30T00:51:13.690Z,99.90
2019-04-30T00:58:11.939Z,99.90
2019-04-30T01:23:43.065Z,99.90
2019-04-30T01:39:02.604Z,99.90
2019-04-30T01:42:07.246Z,99.90
2019-04-30T01:48:59.146Z,99.90
2019-04-30T01:56:10.523Z,99.90
2019-04-30T02:03:16.430Z,99.90
2019-04-30T02:10:15.491Z,99.90
2019-04-30T02:13:56.003Z,99.90
2019-04-30T02:29:12.416Z,99.90
2019-04-30T02:32:22.947Z,99.90
2019-04-30T02:39:40.337Z,99.90
2019-04-30T02:48:25.351Z,99.90
2019-04-30T03:04:41.831Z,99.90
2019-04-30T03:23:10.184Z,99.90
2019-04-30T03:31:04.956Z,99.90
2019-04-30T03:41:00.140Z,99.90
2019-04-30T03:44:32.331Z,99.90
2019-04-30T03:47:45.523Z,99.90
2019-04-30T03:51:16.852Z,99.90
2019-04-30T04:01:41.390Z,99.90
2019-04-30T04:05:39.947Z,99.90
2019-04-30T04:31:52.868Z,99.90
2019-04-30T04:38:12.635Z,99.90
2019-04-30T04:41:50.824Z,99.90
2019-04-30T04:44:20.534Z,99.90
2019-04-30T04:46:50.520Z,99.90
2019-04-30T04:49:20.704Z,99.90
2019-04-30T04:51:49.998Z,99.90
2019-04-30T04:54:20.214Z,99.90
2019-04-30T04:56:52.901Z,99.90
2019-04-30T04:59:20.396Z,99.90
2019-04-30T05:07:00.390Z,99.90
2019-04-30T05:09:31.478Z,99.90
2019-04-30T05:12:00.522Z,99.90
2019-04-30T05:14:29.608Z,99.90
2019-04-30T05:16:58.723Z,99.90
2019-04-30T05:19:28.616Z,99.90
2019-04-30T05:21:59.658Z,99.90
2019-04-30T05:24:28.703Z,99.90
2019-04-30T05:26:58.691Z,99.90
2019-04-30T05:29:28.925Z,99.90
2019-04-30T05:31:58.571Z,99.90
2019-04-30T05:34:28.844Z,99.90
2019-04-30T05:36:58.513Z,99.90
2019-04-30T05:39:28.712Z,99.90
2019-04-30T05:41:58.944Z,99.90
2019-04-30T05:44:29.740Z,99.90
2019-04-30T05:46:59.274Z,99.90
2019-04-30T05:49:28.759Z,99.90
2019-04-30T05:51:59.331Z,99.90
2019-04-30T05:54:29.230Z,99.90
2019-04-30T05:56:59.413Z,99.90
2019-04-30T05:59:29.028Z,99.90
2019-04-30T06:01:59.221Z,99.90
2019-04-30T06:04:29.406Z,99.90
2019-04-30T06:06:58.736Z,99.90
2019-04-30T06:09:43.117Z,99.90
2019-04-30T06:12:21.614Z,99.90
2019-04-30T06:14:54.188Z,99.90
2019-04-30T06:17:23.677Z,99.90
2019-04-30T06:19:52.821Z,99.90
2019-04-30T06:22:22.013Z,99.90
2019-04-30T06:24:51.106Z,99.90
2019-04-30T06:27:20.357Z,99.90
2019-04-30T06:29:49.863Z,99.90
2019-04-30T06:32:19.086Z,99.90
2019-04-30T06:34:49.853Z,99.90
2019-04-30T06:37:19.593Z,99.90
2019-04-30T06:39:50.072Z,99.90
2019-04-30T06:42:19.551Z,99.90
2019-04-30T06:44:49.500Z,99.90
2019-04-30T06:47:26.533Z,99.90
2019-04-30T06:49:49.694Z,99.90
2019-04-30T06:52:22.979Z,99.90
2019-04-30T06:54:49.960Z,99.90
2019-04-30T06:57:19.875Z,99.90
2019-04-30T06:59:51.218Z,99.90
2019-04-30T07:02:20.004Z,99.90
2019-04-30T07:04:49.303Z,99.90
2019-04-30T07:07:22.968Z,99.90
2019-04-30T07:10:04.628Z,99.90
2019-04-30T07:12:40.886Z,99.90
2019-04-30T07:15:10.094Z,99.90
2019-04-30T07:17:40.682Z,99.90
2019-04-30T07:20:10.446Z,99.90
2019-04-30T07:22:45.486Z,99.90
2019-04-30T07:25:10.557Z,99.90
2019-04-30T07:27:40.077Z,99.90
2019-04-30T07:30:10.212Z,99.90
2019-04-30T07:32:39.334Z,99.90
2019-04-30T07:35:09.576Z,99.90
2019-04-30T07:37:39.272Z,99.90
2019-04-30T07:40:09.279Z,99.90
2019-04-30T07:42:44.718Z,99.90
2019-04-30T07:45:09.781Z,99.90
2019-04-30T07:47:39.504Z,99.90
2019-04-30T07:50:10.756Z,99.90
2019-04-30T07:52:57.731Z,99.90
2019-04-30T07:55:11.147Z,99.90
2019-04-30T07:57:40.607Z,99.90
2019-04-30T08:00:10.223Z,99.90
2019-04-30T08:02:44.615Z,99.90
2019-04-30T08:05:22.697Z,99.90
2019-04-30T08:07:51.816Z,99.90
2019-04-30T08:10:20.920Z,99.90
2019-04-30T08:12:50.855Z,99.90
2019-04-30T08:15:20.355Z,99.90
2019-04-30T08:18:02.300Z,99.90
2019-04-30T08:20:20.315Z,99.90
2019-04-30T08:22:49.609Z,99.90
2019-04-30T08:25:21.524Z,99.90
2019-04-30T08:27:49.554Z,99.90
2019-04-30T08:30:26.205Z,99.90
2019-04-30T08:32:50.076Z,99.90
2019-04-30T08:35:19.834Z,99.90
2019-04-30T08:37:49.968Z,99.90
2019-04-30T08:40:19.258Z,99.90
2019-04-30T08:42:49.577Z,99.90
2019-04-30T08:45:19.845Z,99.90
2019-04-30T08:47:49.441Z,99.90
2019-04-30T08:50:19.998Z,99.90
2019-04-30T08:52:50.074Z,99.90
2019-04-30T08:55:22.347Z,99.90
2019-04-30T08:57:50.373Z,99.90
2019-04-30T09:00:19.984Z,99.90
2019-04-30T09:02:49.340Z,99.90
2019-04-30T09:05:30.027Z,99.90
2019-04-30T09:07:59.709Z,99.90
2019-04-30T09:10:29.566Z,99.90
2019-04-30T09:12:59.800Z,99.90
2019-04-30T09:15:29.178Z,99.90
2019-04-30T09:18:03.806Z,99.90
2019-04-30T09:20:29.250Z,99.90
2019-04-30T09:22:59.585Z,99.90
2019-04-30T09:25:28.882Z,99.90
2019-04-30T09:27:58.804Z,99.90
2019-04-30T09:30:29.792Z,99.90
2019-04-30T09:32:59.574Z,99.90
2019-04-30T09:35:31.758Z,99.90
2019-04-30T09:38:01.848Z,99.90
2019-04-30T09:40:32.501Z,99.90
2019-04-30T09:43:01.242Z,99.90
2019-04-30T09:45:30.342Z,99.90
2019-04-30T09:47:59.454Z,99.90
2019-04-30T09:50:29.199Z,99.90
2019-04-30T09:53:00.967Z,99.60
2019-04-30T09:55:29.442Z,98.00
2019-04-30T09:57:58.937Z,98.70
2019-04-30T10:00:29.455Z,98.90
2019-04-30T10:02:59.866Z,98.90
2019-04-30T10:05:29.441Z,99.10
2019-04-30T10:07:59.349Z,99.20
2019-04-30T10:10:34.018Z,99.40
2019-04-30T10:13:03.239Z,99.60
2019-04-30T10:15:42.010Z,99.70
2019-04-30T10:18:11.158Z,99.60
2019-04-30T10:20:41.850Z,99.40
2019-04-30T10:23:10.941Z,99.40
2019-04-30T10:25:40.003Z,99.10
2019-04-30T10:28:09.991Z,98.00
2019-04-30T10:30:39.396Z,98.50
2019-04-30T10:33:10.034Z,98.50
2019-04-30T10:35:39.304Z,98.40
2019-04-30T10:38:09.880Z,97.90
2019-04-30T10:40:39.250Z,98.10
2019-04-30T10:43:08.915Z,97.90
2019-04-30T10:45:38.954Z,97.90
2019-04-30T10:48:08.207Z,97.80
2019-04-30T10:50:40.725Z,97.70
2019-04-30T10:53:09.159Z,97.70
2019-04-30T10:55:38.876Z,97.70
2019-04-30T10:58:08.084Z,96.70
2019-04-30T11:00:39.427Z,96.00
2019-04-30T11:03:19.527Z,96.40
2019-04-30T11:05:41.301Z,96.00
2019-04-30T11:08:10.618Z,96.10
2019-04-30T11:10:40.028Z,95.00
2019-04-30T11:13:09.200Z,95.50
2019-04-30T11:15:39.433Z,95.40
2019-04-30T11:18:08.866Z,95.00
2019-04-30T11:20:39.738Z,93.30
2019-04-30T11:23:14.464Z,93.20
2019-04-30T11:25:41.043Z,93.70
2019-04-30T11:28:11.300Z,94.00
2019-04-30T11:30:40.907Z,94.10
2019-04-30T11:33:10.291Z,94.00
2019-04-30T11:35:39.590Z,94.00
2019-04-30T11:38:08.698Z,93.90
2019-04-30T11:40:39.992Z,93.90
2019-04-30T11:43:08.618Z,93.80
2019-04-30T11:46:23.768Z,92.90
2019-04-30T11:48:52.914Z,92.00
2019-04-30T11:51:22.006Z,91.40
2019-04-30T11:53:51.104Z,90.30
2019-04-30T11:56:20.291Z,89.10
2019-04-30T11:58:49.376Z,87.40
2019-04-30T12:01:20.785Z,89.40
2019-04-30T12:03:49.978Z,86.30
2019-04-30T12:06:19.053Z,87.50
2019-04-30T12:09:11.832Z,88.70
2019-04-30T12:11:40.936Z,88.00
2019-04-30T12:14:10.066Z,86.90
2019-04-30T12:16:39.591Z,86.80
2019-04-30T12:19:09.108Z,84.60
2019-04-30T12:21:38.298Z,84.20
2019-04-30T12:24:07.412Z,83.80
2019-04-30T12:26:36.516Z,84.50
2019-04-30T12:29:05.660Z,85.90
2019-04-30T12:31:34.748Z,86.60
2019-04-30T12:34:03.834Z,86.70
2019-04-30T12:36:32.932Z,86.90
2019-04-30T12:39:02.021Z,87.10
2019-04-30T12:41:31.095Z,86.70
2019-04-30T12:44:00.220Z,85.50
2019-04-30T12:46:29.287Z,85.60
2019-04-30T12:49:07.772Z,84.80
2019-04-30T12:51:46.282Z,85.30
2019-04-30T12:54:49.538Z,85.20
2019-04-30T12:57:29.512Z,85.20
2019-04-30T13:00:00.497Z,85.00
2019-04-30T13:02:29.729Z,85.00
2019-04-30T13:05:00.525Z,84.80
2019-04-30T13:07:30.716Z,82.70
2019-04-30T13:10:01.849Z,81.20
2019-04-30T13:12:31.510Z,80.90
2019-04-30T13:15:00.825Z,81.20
2019-04-30T13:17:29.913Z,82.00
2019-04-30T13:19:59.056Z,81.80
2019-04-30T13:22:29.002Z,80.90
2019-04-30T13:24:59.603Z,81.00
2019-04-30T13:27:30.875Z,80.50
2019-04-30T13:30:29.666Z,79.70
2019-04-30T13:33:23.658Z,79.60
2019-04-30T13:35:52.847Z,78.20
2019-04-30T13:38:49.643Z,79.50
2019-04-30T13:41:36.925Z,78.50
2019-04-30T13:44:09.730Z,79.40
2019-04-30T13:46:39.545Z,80.10
2019-04-30T13:49:08.769Z,80.50
2019-04-30T13:51:37.874Z,79.10
2019-04-30T13:54:06.957Z,79.40
2019-04-30T13:56:36.067Z,79.70
2019-04-30T13:59:05.243Z,79.70
2019-04-30T14:01:34.431Z,79.60
2019-04-30T14:04:25.833Z,79.20
2019-04-30T14:07:11.025Z,79.10
2019-04-30T14:09:40.242Z,79.20
2019-04-30T14:12:09.437Z,79.40
2019-04-30T14:14:39.559Z,79.30
2019-04-30T14:17:09.218Z,79.10
2019-04-30T14:19:38.417Z,79.00
2019-04-30T14:22:08.981Z,78.60
2019-04-30T14:24:38.200Z,78.20
2019-04-30T14:27:09.033Z,77.90
2019-04-30T14:29:39.531Z,76.40
2019-04-30T14:32:08.778Z,76.70
2019-04-30T14:34:39.523Z,77.00
2019-04-30T14:37:08.791Z,76.50
2019-04-30T14:39:37.983Z,75.90
2019-04-30T14:42:10.515Z,75.30
2019-04-30T14:44:40.289Z,75.90
2019-04-30T14:47:20.400Z,75.10
2019-04-30T14:53:48.992Z,71.70
2019-04-30T14:56:34.694Z,72.40
2019-04-30T14:59:35.067Z,69.30
2019-04-30T15:02:23.254Z,70.30
2019-04-30T15:04:52.364Z,70.70
2019-04-30T15:07:21.512Z,70.50
2019-04-30T15:09:50.593Z,70.70
2019-04-30T15:12:19.698Z,71.20
2019-04-30T15:14:49.363Z,72.00
2019-04-30T15:17:18.551Z,72.70
2019-04-30T15:19:49.402Z,72.70
2019-04-30T15:22:18.978Z,71.50
2019-04-30T15:24:49.183Z,71.60
2019-04-30T15:27:19.161Z,71.40
2019-04-30T15:29:56.615Z,71.70
2019-04-30T15:32:19.272Z,71.80
2019-04-30T15:34:49.056Z,71.90
2019-04-30T15:37:21.802Z,71.90
2019-04-30T15:39:49.152Z,71.50
2019-04-30T15:42:19.022Z,71.20
2019-04-30T15:44:49.672Z,69.20
2019-04-30T15:47:19.149Z,68.80
2019-04-30T15:49:48.295Z,68.20
2019-04-30T15:52:18.958Z,70.20
2019-04-30T15:54:49.092Z,70.00
2019-04-30T15:57:18.946Z,69.90
2019-04-30T15:59:48.250Z,69.70
2019-04-30T16:02:25.629Z,70.60
2019-04-30T16:05:12.159Z,71.40
2019-04-30T16:07:59.050Z,71.30
2019-04-30T16:10:42.531Z,71.20
2019-04-30T16:13:15.955Z,69.70
2019-04-30T16:15:45.045Z,70.60
2019-04-30T16:18:16.989Z,70.30
2019-04-30T16:20:46.069Z,69.60
2019-04-30T16:23:15.183Z,69.50
2019-04-30T16:25:44.282Z,69.50
2019-04-30T16:28:13.421Z,69.20
2019-04-30T16:30:42.918Z,68.20
2019-04-30T16:33:12.121Z,68.70
2019-04-30T16:35:41.217Z,69.60
2019-04-30T16:38:10.323Z,67.60
2019-04-30T16:40:39.450Z,68.20
2019-04-30T16:43:08.599Z,67.40
2019-04-30T16:45:38.971Z,66.60
2019-04-30T16:48:10.080Z,66.80
2019-04-30T16:50:38.971Z,67.10
2019-04-30T16:53:08.114Z,66.90
2019-04-30T16:55:37.230Z,66.50
2019-04-30T16:58:08.794Z,67.00
2019-04-30T17:00:39.186Z,65.90
2019-04-30T17:03:15.059Z,67.70
2019-04-30T17:05:49.912Z,67.20
2019-04-30T17:08:28.980Z,68.40
2019-04-30T17:11:08.506Z,68.50
2019-04-30T17:13:59.706Z,66.90
2019-04-30T17:16:30.228Z,66.70
2019-04-30T17:18:59.531Z,66.60
2019-04-30T17:21:29.655Z,67.10
2019-04-30T17:23:58.970Z,65.80
2019-04-30T17:26:28.099Z,64.90
2019-04-30T17:28:59.702Z,66.10
2019-04-30T17:31:28.266Z,65.60
2019-04-30T17:33:57.271Z,64.50
2019-04-30T17:36:26.436Z,64.90
2019-04-30T17:38:55.580Z,64.40
2019-04-30T17:41:24.711Z,64.20
2019-04-30T17:43:53.820Z,64.40
2019-04-30T17:46:22.962Z,64.00
2019-04-30T17:48:52.342Z,65.00
2019-04-30T17:51:22.952Z,63.60
2019-04-30T17:54:09.771Z,63.10
2019-04-30T17:56:38.916Z,63.10
2019-04-30T17:59:08.088Z,60.80
2019-04-30T18:01:39.908Z,61.10
2019-04-30T18:04:08.852Z,60.50
2019-04-30T18:06:38.408Z,60.00
2019-04-30T18:09:10.771Z,59.10
2019-04-30T18:11:39.616Z,59.10
2019-04-30T18:14:08.917Z,57.70
2019-04-30T18:16:38.716Z,57.30
2019-04-30T18:19:24.503Z,56.60
2019-04-30T18:21:59.621Z,57.50
2019-04-30T18:24:56.305Z,56.70
2019-04-30T18:27:43.062Z,56.30
2019-04-30T18:30:03.223Z,56.20
2019-04-30T18:32:32.359Z,56.20
2019-04-30T18:35:01.361Z,56.50
2019-04-30T18:37:32.874Z,56.10
2019-04-30T18:40:02.102Z,56.00
2019-04-30T18:42:31.283Z,56.10
2019-04-30T18:45:00.362Z,56.00
2019-04-30T18:47:29.570Z,56.10
2019-04-30T18:49:59.462Z,56.40
2019-04-30T18:52:28.657Z,56.50
2019-04-30T18:54:59.491Z,56.40
2019-04-30T18:57:28.699Z,56.20
2019-04-30T18:59:59.150Z,56.40
2019-04-30T19:02:28.815Z,56.50
2019-04-30T19:04:59.510Z,56.60
2019-04-30T19:07:50.971Z,56.70
2019-04-30T19:10:27.543Z,56.70
2019-04-30T19:13:08.930Z,57.10
2019-04-30T19:16:18.627Z,57.20
2019-04-30T19:18:37.887Z,57.00
2019-04-30T19:21:08.947Z,57.20
2019-04-30T19:23:39.068Z,57.50
2019-04-30T19:26:08.205Z,57.70
2019-04-30T19:28:38.686Z,57.50
2019-04-30T19:31:11.324Z,57.90
2019-04-30T19:33:38.961Z,58.00
2019-04-30T19:36:09.846Z,58.00
2019-04-30T19:38:39.069Z,58.10
2019-04-30T19:41:10.647Z,58.00
2019-04-30T19:43:39.215Z,58.20
2019-04-30T19:46:09.173Z,58.40
2019-04-30T19:48:38.482Z,58.50
2019-04-30T19:51:08.870Z,58.60
2019-04-30T19:53:39.533Z,58.70
2019-04-30T19:56:08.842Z,58.70
2019-04-30T19:58:52.485Z,58.70
2019-04-30T20:01:09.516Z,58.80
2019-04-30T20:03:40.579Z,58.80
2019-04-30T20:06:09.602Z,58.80
2019-04-30T20:08:38.832Z,58.80
2019-04-30T20:11:08.004Z,58.90
2019-04-30T20:13:37.478Z,59.00
2019-04-30T20:16:06.642Z,59.10
2019-04-30T20:18:35.776Z,59.20
2019-04-30T20:21:09.208Z,59.30
2019-04-30T20:23:38.526Z,59.40
2019-04-30T20:26:07.744Z,59.50
2019-04-30T20:28:39.929Z,59.50
2019-04-30T20:31:09.014Z,59.60
2019-04-30T20:33:38.969Z,59.80
2019-04-30T20:36:09.215Z,59.80
2019-04-30T20:38:43.311Z,59.90
2019-04-30T20:41:12.735Z,60.00
2019-04-30T20:43:41.882Z,60.10
2019-04-30T20:46:11.113Z,60.30
2019-04-30T20:48:41.172Z,60.20
2019-04-30T20:51:10.419Z,60.50
2019-04-30T20:53:41.005Z,60.70
2019-04-30T20:56:10.289Z,60.60
2019-04-30T20:58:54.258Z,60.70
2019-04-30T21:01:10.281Z,60.80
2019-04-30T21:03:39.700Z,61.00
2019-04-30T21:06:08.987Z,61.00
2019-04-30T21:08:38.160Z,61.20
2019-04-30T21:11:09.303Z,61.30
2019-04-30T21:13:39.223Z,61.50
2019-04-30T21:16:08.527Z,61.60
2019-04-30T21:18:39.178Z,62.00
2019-04-30T21:21:08.403Z,62.10
2019-04-30T21:23:39.255Z,62.00
2019-04-30T21:26:08.607Z,62.30
2019-04-30T21:28:39.316Z,62.10
2019-04-30T21:31:26.000Z,62.20
2019-04-30T21:34:00.587Z,62.10
2019-04-30T21:36:29.918Z,62.20
2019-04-30T21:38:59.138Z,62.10
2019-04-30T21:41:29.678Z,62.20
2019-04-30T21:43:58.984Z,62.40
2019-04-30T21:46:29.263Z,62.50
2019-04-30T21:48:58.747Z,62.60
2019-04-30T21:51:27.960Z,62.70
2019-04-30T21:53:57.082Z,62.80
2019-04-30T21:56:26.200Z,62.70
2019-04-30T21:58:55.340Z,62.80
2019-04-30T22:01:25.933Z,62.80
2019-04-30T22:03:55.126Z,62.80
2019-04-30T22:06:24.245Z,62.80
2019-04-30T22:08:53.384Z,62.90
2019-04-30T22:11:22.780Z,62.80
2019-04-30T22:13:51.973Z,63.20
2019-04-30T22:16:21.165Z,63.20
2019-04-30T22:18:50.505Z,63.20
2019-04-30T22:21:19.614Z,63.10
2019-04-30T22:23:48.728Z,63.30
2019-04-30T22:26:17.783Z,63.20
2019-04-30T22:28:46.882Z,63.40
2019-04-30T22:31:16.017Z,63.40
2019-04-30T22:33:45.120Z,63.70
2019-04-30T22:36:22.534Z,63.80
2019-04-30T22:39:09.243Z,64.10
2019-04-30T22:41:39.976Z,64.10
2019-04-30T22:44:09.136Z,64.00
2019-04-30T22:46:39.345Z,64.30
2019-04-30T22:49:08.599Z,64.00
2019-04-30T22:51:37.704Z,65.60
2019-04-30T22:54:06.801Z,64.50
2019-04-30T22:56:37.338Z,64.30
2019-04-30T22:59:06.469Z,65.00
2019-04-30T23:01:53.278Z,65.20
2019-04-30T23:04:33.688Z,64.70
2019-04-30T23:07:02.811Z,65.50
2019-04-30T23:09:31.917Z,66.50
2019-04-30T23:12:01.007Z,65.30
2019-04-30T23:14:30.138Z,66.20
2019-04-30T23:16:59.228Z,65.60
2019-04-30T23:19:28.357Z,65.50
2019-04-30T23:21:57.451Z,65.20
2019-04-30T23:24:26.611Z,65.20
2019-04-30T23:26:55.700Z,65.40
2019-04-30T23:29:24.813Z,65.50
2019-04-30T23:31:53.869Z,65.60
2019-04-30T23:34:22.987Z,65.50
2019-04-30T23:36:52.156Z,65.30
2019-04-30T23:39:21.289Z,65.20
2019-04-30T23:41:50.411Z,65.20
2019-04-30T23:44:20.026Z,65.40
2019-04-30T23:46:49.125Z,65.80
2019-04-30T23:49:18.219Z,65.80
2019-04-30T23:51:50.350Z,65.50
2019-04-30T23:54:18.349Z,66.20
2019-04-30T23:56:47.511Z,66.10
2019-04-30T23:59:16.771Z,65.70
